ESMF weather

Fagerhult Airport
Fagerhult, Skåne län, Sweden

Public forecast

Using degrees Celsius for public forecast. Weather courtesy of forecast.io.

Closest aviation weather report (METAR) to Fagerhult Airport

Closest report is Ljungbyhed Airport, 20.2 nm (37.5 km) SSW. Retrieved 2019/10/23 08:20 UTC (29 minutes ago):

ESTL 230820Z 24006KT 9999 BKN025 11/07 Q1020

Closest aviation forecast (TAF) to Fagerhult Airport

Forecast is more than 12 hours old.

Closest forecast is Ljungbyhed Airport, 20.2 nm (37.5 km) SSW. Retrieved 2016/03/01 09:33 UTC (4 years ago):

TAF ESTL 010830Z 0109/0124 14004KT 9999 SCT025